Ana Sayfa
METAR-TAF:

METAR-TAF

Havaalanları :

Chichén Itzá, Meksika

Enlem: 20-38-30N, Boylam: 088-26-58W, yükseklik: 31 m

Güncel hava durumu gözlemi

Rapor saat 23:49 UTC de 7 saat ve 14 dakika önce yapıldı.
Sakin rüzgar
Sıcaklık 30°C
Nem 84%
Basınç 1011 hPa
Görüş mesafesi: 9.7 km
2000 ft yükseklikte parçalı bulutlu
10000 ft yükseklikte parçalı bulutlu
30000 ft yükseklikte parçalı çok bulutlu

METAR: MMCT 212349Z 00000KT 6SM SCT020 SCT100 BKN300 30/27 A2985 RMK 8/538 HZY OCNL DROPS

Saat: 02:03 (07:03 UTC)


TAF: eksik

4.000'den fazla havaalanı için hava durumu gözlemleri ve tahminleri (METAR ve TAF raporları).

Kullanılabilir istasyonlar harita üzerinde sarı ve kırmızı noktalarla gösterilir.

İstasyonun adını görmek için fareyi noktanın üzerinde gezdirin.

Sonrasında hava gözlem ve tahminlerini görmek için tıklayın.

Haritayı değiştirmek için: yaklaştırmak için siyah artı işaretli yeşil düğmeye ve uzaklaştırmak için de eksi işaretli düğmeye hızla tıklayın; bitişik haritalar için yeşil okları kullanın.


METAR-TAF: